sensor_id;sensor_type;location;lat;lon;timestamp;P1;durP1;ratioP1;P2;durP2;ratioP2
61413;SDS011;47279;52.426;10.488;2022-08-01T00:01:24;1.08;;;1.08;;
61413;SDS011;47279;52.426;10.488;2022-08-01T00:03:50;1.00;;;1.00;;
61413;SDS011;47279;52.426;10.488;2022-08-01T00:06:16;1.00;;;0.95;;
61413;SDS011;47279;52.426;10.488;2022-08-01T00:08:42;1.10;;;1.00;;
61413;SDS011;47279;52.426;10.488;2022-08-01T00:11:08;1.20;;;1.10;;
61413;SDS011;47279;52.426;10.488;2022-08-01T00:13:37;1.52;;;1.42;;
61413;SDS011;47279;52.426;10.488;2022-08-01T00:16:03;1.10;;;1.08;;
61413;SDS011;47279;52.426;10.488;2022-08-01T00:18:29;1.25;;;1.13;;
61413;SDS011;47279;52.426;10.488;2022-08-01T00:20:55;1.10;;;1.00;;
61413;SDS011;47279;52.426;10.488;2022-08-01T00:23:20;1.10;;;1.00;;
61413;SDS011;47279;52.426;10.488;2022-08-01T00:25:46;1.15;;;1.05;;
61413;SDS011;47279;52.426;10.488;2022-08-01T00:28:12;1.05;;;1.00;;
61413;SDS011;47279;52.426;10.488;2022-08-01T00:30:38;1.10;;;1.00;;
61413;SDS011;47279;52.426;10.488;2022-08-01T00:33:04;1.15;;;1.05;;
61413;SDS011;47279;52.426;10.488;2022-08-01T00:35:30;1.13;;;1.02;;
61413;SDS011;47279;52.426;10.488;2022-08-01T00:37:56;1.25;;;1.15;;
61413;SDS011;47279;52.426;10.488;2022-08-01T00:40:22;0.90;;;0.90;;
61413;SDS011;47279;52.426;10.488;2022-08-01T00:42:48;1.10;;;1.00;;
61413;SDS011;47279;52.426;10.488;2022-08-01T00:45:14;1.35;;;1.13;;
61413;SDS011;47279;52.426;10.488;2022-08-01T00:47:40;0.95;;;0.95;;
61413;SDS011;47279;52.426;10.488;2022-08-01T00:50:06;0.90;;;0.90;;
61413;SDS011;47279;52.426;10.488;2022-08-01T00:52:33;1.02;;;1.02;;
61413;SDS011;47279;52.426;10.488;2022-08-01T00:54:59;1.02;;;1.00;;
61413;SDS011;47279;52.426;10.488;2022-08-01T00:57:25;0.88;;;0.88;;
61413;SDS011;47279;52.426;10.488;2022-08-01T00:59:52;2.40;;;1.33;;
61413;SDS011;47279;52.426;10.488;2022-08-01T01:02:18;1.10;;;1.00;;
61413;SDS011;47279;52.426;10.488;2022-08-01T01:04:44;1.38;;;1.10;;
61413;SDS011;47279;52.426;10.488;2022-08-01T01:07:17;0.90;;;0.90;;
61413;SDS011;47279;52.426;10.488;2022-08-01T01:09:58;1.15;;;1.10;;
61413;SDS011;47279;52.426;10.488;2022-08-01T01:15:33;1.25;;;1.10;;
61413;SDS011;47279;52.426;10.488;2022-08-01T01:18:09;1.20;;;1.10;;
61413;SDS011;47279;52.426;10.488;2022-08-01T01:20:37;1.23;;;1.13;;
61413;SDS011;47279;52.426;10.488;2022-08-01T01:23:12;1.20;;;1.10;;
61413;SDS011;47279;52.426;10.488;2022-08-01T01:30:55;1.10;;;1.10;;
61413;SDS011;47279;52.426;10.488;2022-08-01T01:33:22;1.27;;;1.17;;
61413;SDS011;47279;52.426;10.488;2022-08-01T01:35:51;1.13;;;1.05;;
61413;SDS011;47279;52.426;10.488;2022-08-01T01:38:18;0.90;;;0.90;;
61413;SDS011;47279;52.426;10.488;2022-08-01T01:40:46;1.20;;;1.10;;
61413;SDS011;47279;52.426;10.488;2022-08-01T01:43:12;1.20;;;1.10;;
61413;SDS011;47279;52.426;10.488;2022-08-01T01:45:39;1.35;;;1.20;;
61413;SDS011;47279;52.426;10.488;2022-08-01T01:48:06;1.30;;;1.20;;
61413;SDS011;47279;52.426;10.488;2022-08-01T01:50:33;1.17;;;1.08;;
61413;SDS011;47279;52.426;10.488;2022-08-01T01:52:59;0.95;;;0.95;;
61413;SDS011;47279;52.426;10.488;2022-08-01T01:55:26;1.60;;;1.50;;
61413;SDS011;47279;52.426;10.488;2022-08-01T01:57:54;1.30;;;1.20;;
61413;SDS011;47279;52.426;10.488;2022-08-01T02:00:22;1.02;;;1.02;;
61413;SDS011;47279;52.426;10.488;2022-08-01T02:02:49;1.20;;;1.10;;
61413;SDS011;47279;52.426;10.488;2022-08-01T02:05:16;0.90;;;0.90;;
61413;SDS011;47279;52.426;10.488;2022-08-01T02:07:43;1.25;;;1.15;;
61413;SDS011;47279;52.426;10.488;2022-08-01T02:10:10;1.10;;;1.00;;
61413;SDS011;47279;52.426;10.488;2022-08-01T02:12:37;1.02;;;1.00;;
61413;SDS011;47279;52.426;10.488;2022-08-01T02:15:04;1.00;;;1.00;;
61413;SDS011;47279;52.426;10.488;2022-08-01T02:17:31;1.05;;;1.00;;
61413;SDS011;47279;52.426;10.488;2022-08-01T02:19:57;1.20;;;1.10;;
61413;SDS011;47279;52.426;10.488;2022-08-01T02:22:27;1.10;;;1.00;;
61413;SDS011;47279;52.426;10.488;2022-08-01T02:24:56;1.13;;;1.08;;
61413;SDS011;47279;52.426;10.488;2022-08-01T02:27:24;1.17;;;1.08;;
61413;SDS011;47279;52.426;10.488;2022-08-01T02:30:13;1.20;;;1.10;;
61413;SDS011;47279;52.426;10.488;2022-08-01T02:32:47;1.30;;;1.20;;
61413;SDS011;47279;52.426;10.488;2022-08-01T02:35:19;1.15;;;1.15;;
61413;SDS011;47279;52.426;10.488;2022-08-01T02:37:45;1.10;;;1.10;;
61413;SDS011;47279;52.426;10.488;2022-08-01T02:40:13;1.30;;;1.20;;
61413;SDS011;47279;52.426;10.488;2022-08-01T02:42:41;1.02;;;1.00;;
61413;SDS011;47279;52.426;10.488;2022-08-01T02:45:09;1.30;;;1.20;;
61413;SDS011;47279;52.426;10.488;2022-08-01T02:47:37;1.00;;;0.90;;
61413;SDS011;47279;52.426;10.488;2022-08-01T02:50:03;0.95;;;0.95;;
61413;SDS011;47279;52.426;10.488;2022-08-01T02:52:30;1.10;;;1.00;;
61413;SDS011;47279;52.426;10.488;2022-08-01T02:54:57;1.08;;;1.08;;
61413;SDS011;47279;52.426;10.488;2022-08-01T02:57:24;1.20;;;1.08;;
61413;SDS011;47279;52.426;10.488;2022-08-01T02:59:50;1.20;;;1.10;;
61413;SDS011;47279;52.426;10.488;2022-08-01T03:02:16;1.00;;;1.00;;
61413;SDS011;47279;52.426;10.488;2022-08-01T03:04:43;1.20;;;1.10;;
61413;SDS011;47279;52.426;10.488;2022-08-01T03:07:10;1.33;;;1.10;;
61413;SDS011;47279;52.426;10.488;2022-08-01T03:09:40;1.27;;;1.15;;
61413;SDS011;47279;52.426;10.488;2022-08-01T03:12:10;1.10;;;1.00;;
61413;SDS011;47279;52.426;10.488;2022-08-01T03:14:38;1.20;;;1.10;;
61413;SDS011;47279;52.426;10.488;2022-08-01T03:17:05;1.20;;;1.10;;
61413;SDS011;47279;52.426;10.488;2022-08-01T03:19:31;1.10;;;1.00;;
61413;SDS011;47279;52.426;10.488;2022-08-01T03:21:58;1.20;;;1.10;;
61413;SDS011;47279;52.426;10.488;2022-08-01T03:24:25;1.30;;;1.20;;
61413;SDS011;47279;52.426;10.488;2022-08-01T03:26:51;1.30;;;1.20;;
61413;SDS011;47279;52.426;10.488;2022-08-01T03:29:22;1.30;;;1.20;;
61413;SDS011;47279;52.426;10.488;2022-08-01T03:31:49;1.15;;;1.05;;
61413;SDS011;47279;52.426;10.488;2022-08-01T03:34:16;1.13;;;1.08;;
61413;SDS011;47279;52.426;10.488;2022-08-01T03:36:47;1.27;;;1.17;;
61413;SDS011;47279;52.426;10.488;2022-08-01T03:39:14;1.40;;;1.30;;
61413;SDS011;47279;52.426;10.488;2022-08-01T03:41:43;1.00;;;0.90;;
61413;SDS011;47279;52.426;10.488;2022-08-01T03:44:12;1.00;;;1.00;;
61413;SDS011;47279;52.426;10.488;2022-08-01T03:46:40;1.13;;;1.08;;
61413;SDS011;47279;52.426;10.488;2022-08-01T03:49:10;1.30;;;1.20;;
61413;SDS011;47279;52.426;10.488;2022-08-01T03:51:37;1.17;;;1.07;;
61413;SDS011;47279;52.426;10.488;2022-08-01T03:54:03;1.25;;;1.00;;
61413;SDS011;47279;52.426;10.488;2022-08-01T03:56:29;0.85;;;0.85;;
61413;SDS011;47279;52.426;10.488;2022-08-01T03:58:57;1.30;;;1.20;;
61413;SDS011;47279;52.426;10.488;2022-08-01T04:01:23;1.10;;;1.00;;
61413;SDS011;47279;52.426;10.488;2022-08-01T04:03:49;1.08;;;1.08;;
61413;SDS011;47279;52.426;10.488;2022-08-01T04:06:15;1.20;;;1.10;;
61413;SDS011;47279;52.426;10.488;2022-08-01T04:08:42;0.90;;;0.90;;
61413;SDS011;47279;52.426;10.488;2022-08-01T04:11:08;1.27;;;1.17;;
61413;SDS011;47279;52.426;10.488;2022-08-01T04:13:35;0.80;;;0.77;;
61413;SDS011;47279;52.426;10.488;2022-08-01T04:16:01;1.10;;;1.00;;
61413;SDS011;47279;52.426;10.488;2022-08-01T04:18:26;1.40;;;1.30;;
61413;SDS011;47279;52.426;10.488;2022-08-01T04:20:52;1.02;;;1.00;;
61413;SDS011;47279;52.426;10.488;2022-08-01T04:23:20;1.30;;;1.20;;
61413;SDS011;47279;52.426;10.488;2022-08-01T04:25:48;1.05;;;1.00;;
61413;SDS011;47279;52.426;10.488;2022-08-01T04:28:15;1.13;;;1.02;;
61413;SDS011;47279;52.426;10.488;2022-08-01T04:30:42;1.40;;;1.30;;
61413;SDS011;47279;52.426;10.488;2022-08-01T04:33:09;0.90;;;0.90;;
61413;SDS011;47279;52.426;10.488;2022-08-01T04:35:37;1.13;;;1.08;;
61413;SDS011;47279;52.426;10.488;2022-08-01T04:38:05;0.95;;;0.95;;
61413;SDS011;47279;52.426;10.488;2022-08-01T04:40:33;1.08;;;1.00;;
61413;SDS011;47279;52.426;10.488;2022-08-01T04:43:00;1.13;;;1.02;;
61413;SDS011;47279;52.426;10.488;2022-08-01T04:45:26;1.20;;;1.10;;
61413;SDS011;47279;52.426;10.488;2022-08-01T04:47:53;1.10;;;1.10;;
61413;SDS011;47279;52.426;10.488;2022-08-01T04:50:19;1.10;;;1.00;;
61413;SDS011;47279;52.426;10.488;2022-08-01T04:52:46;0.95;;;0.95;;
61413;SDS011;47279;52.426;10.488;2022-08-01T04:55:13;0.95;;;0.95;;
61413;SDS011;47279;52.426;10.488;2022-08-01T04:57:39;1.52;;;1.17;;
61413;SDS011;47279;52.426;10.488;2022-08-01T05:00:05;0.90;;;0.90;;
61413;SDS011;47279;52.426;10.488;2022-08-01T05:02:32;0.88;;;0.88;;
61413;SDS011;47279;52.426;10.488;2022-08-01T05:04:58;0.90;;;0.90;;
61413;SDS011;47279;52.426;10.488;2022-08-01T05:07:24;1.02;;;1.00;;
61413;SDS011;47279;52.426;10.488;2022-08-01T05:09:50;1.10;;;1.00;;
61413;SDS011;47279;52.426;10.488;2022-08-01T05:12:16;1.02;;;1.02;;
61413;SDS011;47279;52.426;10.488;2022-08-01T05:14:42;1.10;;;1.10;;
61413;SDS011;47279;52.426;10.488;2022-08-01T05:17:08;1.10;;;1.00;;
61413;SDS011;47279;52.426;10.488;2022-08-01T05:19:34;1.08;;;1.08;;
61413;SDS011;47279;52.426;10.488;2022-08-01T05:22:02;1.23;;;1.13;;
61413;SDS011;47279;52.426;10.488;2022-08-01T05:24:29;1.00;;;0.85;;
61413;SDS011;47279;52.426;10.488;2022-08-01T05:26:56;1.10;;;1.00;;
61413;SDS011;47279;52.426;10.488;2022-08-01T05:29:22;1.00;;;0.98;;
61413;SDS011;47279;52.426;10.488;2022-08-01T05:31:48;0.90;;;0.90;;
61413;SDS011;47279;52.426;10.488;2022-08-01T05:34:14;1.00;;;0.90;;
61413;SDS011;47279;52.426;10.488;2022-08-01T05:36:40;0.90;;;0.90;;
61413;SDS011;47279;52.426;10.488;2022-08-01T05:39:06;0.82;;;0.82;;
61413;SDS011;47279;52.426;10.488;2022-08-01T05:41:32;0.90;;;0.90;;
61413;SDS011;47279;52.426;10.488;2022-08-01T05:43:58;1.17;;;1.08;;
61413;SDS011;47279;52.426;10.488;2022-08-01T05:46:24;1.08;;;1.00;;
61413;SDS011;47279;52.426;10.488;2022-08-01T05:48:50;1.00;;;0.90;;
61413;SDS011;47279;52.426;10.488;2022-08-01T05:51:16;1.33;;;1.23;;
61413;SDS011;47279;52.426;10.488;2022-08-01T05:53:42;0.90;;;0.90;;
61413;SDS011;47279;52.426;10.488;2022-08-01T05:56:09;1.10;;;1.10;;
61413;SDS011;47279;52.426;10.488;2022-08-01T05:58:35;0.90;;;0.90;;
61413;SDS011;47279;52.426;10.488;2022-08-01T06:01:01;1.30;;;1.00;;
61413;SDS011;47279;52.426;10.488;2022-08-01T06:03:27;1.20;;;1.10;;
61413;SDS011;47279;52.426;10.488;2022-08-01T06:05:56;0.95;;;0.95;;
61413;SDS011;47279;52.426;10.488;2022-08-01T06:08:21;1.00;;;1.00;;
61413;SDS011;47279;52.426;10.488;2022-08-01T06:10:48;0.93;;;0.93;;
61413;SDS011;47279;52.426;10.488;2022-08-01T06:13:13;1.17;;;1.05;;
61413;SDS011;47279;52.426;10.488;2022-08-01T06:15:40;1.05;;;1.05;;
61413;SDS011;47279;52.426;10.488;2022-08-01T06:18:06;1.20;;;1.10;;
61413;SDS011;47279;52.426;10.488;2022-08-01T06:20:32;1.20;;;1.10;;
61413;SDS011;47279;52.426;10.488;2022-08-01T06:22:58;1.25;;;1.15;;
61413;SDS011;47279;52.426;10.488;2022-08-01T06:25:24;1.35;;;1.20;;
61413;SDS011;47279;52.426;10.488;2022-08-01T06:27:49;1.10;;;1.00;;
61413;SDS011;47279;52.426;10.488;2022-08-01T06:30:15;1.10;;;1.00;;
61413;SDS011;47279;52.426;10.488;2022-08-01T06:32:41;1.27;;;1.17;;
61413;SDS011;47279;52.426;10.488;2022-08-01T06:35:07;1.05;;;1.05;;
61413;SDS011;47279;52.426;10.488;2022-08-01T06:37:34;1.15;;;1.05;;
61413;SDS011;47279;52.426;10.488;2022-08-01T06:40:03;0.98;;;0.93;;
61413;SDS011;47279;52.426;10.488;2022-08-01T06:42:29;1.20;;;1.10;;
61413;SDS011;47279;52.426;10.488;2022-08-01T06:45:05;1.00;;;1.00;;
61413;SDS011;47279;52.426;10.488;2022-08-01T06:47:31;1.35;;;1.23;;
61413;SDS011;47279;52.426;10.488;2022-08-01T06:49:57;1.20;;;1.10;;
61413;SDS011;47279;52.426;10.488;2022-08-01T06:52:23;1.00;;;1.00;;
61413;SDS011;47279;52.426;10.488;2022-08-01T06:54:49;1.10;;;1.00;;
61413;SDS011;47279;52.426;10.488;2022-08-01T06:57:15;1.05;;;1.00;;
61413;SDS011;47279;52.426;10.488;2022-08-01T06:59:42;0.90;;;0.90;;
61413;SDS011;47279;52.426;10.488;2022-08-01T07:02:07;1.25;;;1.10;;
61413;SDS011;47279;52.426;10.488;2022-08-01T07:04:34;1.10;;;1.00;;
61413;SDS011;47279;52.426;10.488;2022-08-01T07:07:00;1.00;;;1.00;;
61413;SDS011;47279;52.426;10.488;2022-08-01T07:09:26;1.10;;;1.00;;
61413;SDS011;47279;52.426;10.488;2022-08-01T07:11:52;1.33;;;1.23;;
61413;SDS011;47279;52.426;10.488;2022-08-01T07:14:19;1.35;;;0.98;;
61413;SDS011;47279;52.426;10.488;2022-08-01T07:16:45;1.10;;;1.00;;
61413;SDS011;47279;52.426;10.488;2022-08-01T07:19:11;1.00;;;1.00;;
61413;SDS011;47279;52.426;10.488;2022-08-01T07:21:37;1.00;;;1.00;;
61413;SDS011;47279;52.426;10.488;2022-08-01T07:24:04;1.05;;;1.00;;
61413;SDS011;47279;52.426;10.488;2022-08-01T07:26:30;0.88;;;0.88;;
61413;SDS011;47279;52.426;10.488;2022-08-01T07:28:56;0.93;;;0.93;;
61413;SDS011;47279;52.426;10.488;2022-08-01T07:31:22;0.90;;;0.90;;
61413;SDS011;47279;52.426;10.488;2022-08-01T07:33:48;0.90;;;0.90;;
61413;SDS011;47279;52.426;10.488;2022-08-01T07:36:14;0.98;;;0.98;;
61413;SDS011;47279;52.426;10.488;2022-08-01T07:38:40;1.00;;;1.00;;
61413;SDS011;47279;52.426;10.488;2022-08-01T07:41:06;0.85;;;0.85;;
61413;SDS011;47279;52.426;10.488;2022-08-01T07:43:32;1.27;;;0.80;;
61413;SDS011;47279;52.426;10.488;2022-08-01T07:46:00;1.00;;;0.90;;
61413;SDS011;47279;52.426;10.488;2022-08-01T07:48:26;1.05;;;1.05;;
61413;SDS011;47279;52.426;10.488;2022-08-01T07:50:52;0.82;;;0.82;;
61413;SDS011;47279;52.426;10.488;2022-08-01T07:53:18;1.00;;;1.00;;
61413;SDS011;47279;52.426;10.488;2022-08-01T07:55:44;1.08;;;1.00;;
61413;SDS011;47279;52.426;10.488;2022-08-01T07:58:10;1.20;;;1.10;;
61413;SDS011;47279;52.426;10.488;2022-08-01T08:00:36;1.00;;;1.00;;
61413;SDS011;47279;52.426;10.488;2022-08-01T08:03:02;0.93;;;0.93;;
61413;SDS011;47279;52.426;10.488;2022-08-01T08:05:28;0.95;;;0.95;;
61413;SDS011;47279;52.426;10.488;2022-08-01T08:07:54;0.82;;;0.82;;
61413;SDS011;47279;52.426;10.488;2022-08-01T08:10:20;0.80;;;0.80;;
61413;SDS011;47279;52.426;10.488;2022-08-01T08:12:46;1.02;;;1.00;;
61413;SDS011;47279;52.426;10.488;2022-08-01T08:15:13;0.90;;;0.90;;
61413;SDS011;47279;52.426;10.488;2022-08-01T08:17:39;1.00;;;1.00;;
61413;SDS011;47279;52.426;10.488;2022-08-01T08:20:05;1.05;;;1.05;;
61413;SDS011;47279;52.426;10.488;2022-08-01T08:22:32;0.90;;;0.90;;
61413;SDS011;47279;52.426;10.488;2022-08-01T08:24:58;1.00;;;0.95;;
61413;SDS011;47279;52.426;10.488;2022-08-01T08:27:24;0.90;;;0.90;;
61413;SDS011;47279;52.426;10.488;2022-08-01T08:29:50;0.90;;;0.90;;
61413;SDS011;47279;52.426;10.488;2022-08-01T08:32:16;1.00;;;1.00;;
61413;SDS011;47279;52.426;10.488;2022-08-01T08:34:42;0.85;;;0.85;;
61413;SDS011;47279;52.426;10.488;2022-08-01T08:37:08;0.70;;;0.70;;
61413;SDS011;47279;52.426;10.488;2022-08-01T08:39:34;0.80;;;0.80;;
61413;SDS011;47279;52.426;10.488;2022-08-01T08:42:00;0.80;;;0.80;;
61413;SDS011;47279;52.426;10.488;2022-08-01T08:44:27;1.10;;;1.00;;
61413;SDS011;47279;52.426;10.488;2022-08-01T08:46:53;0.90;;;0.90;;
61413;SDS011;47279;52.426;10.488;2022-08-01T08:49:27;0.85;;;0.85;;
61413;SDS011;47279;52.426;10.488;2022-08-01T08:51:57;0.90;;;0.90;;
61413;SDS011;47279;52.426;10.488;2022-08-01T08:54:24;0.90;;;0.90;;
61413;SDS011;47279;52.426;10.488;2022-08-01T08:56:50;1.00;;;0.80;;
61413;SDS011;47279;52.426;10.488;2022-08-01T08:59:17;0.95;;;0.95;;
61413;SDS011;47279;52.426;10.488;2022-08-01T09:01:43;1.00;;;1.00;;
61413;SDS011;47279;52.426;10.488;2022-08-01T09:04:09;1.10;;;1.00;;
61413;SDS011;47279;52.426;10.488;2022-08-01T09:06:35;0.90;;;0.90;;
61413;SDS011;47279;52.426;10.488;2022-08-01T09:09:01;0.80;;;0.80;;
61413;SDS011;47279;52.426;10.488;2022-08-01T09:11:28;0.80;;;0.80;;
61413;SDS011;47279;52.426;10.488;2022-08-01T09:14:03;0.90;;;0.90;;
61413;SDS011;47279;52.426;10.488;2022-08-01T09:16:30;0.90;;;0.90;;
61413;SDS011;47279;52.426;10.488;2022-08-01T09:19:06;0.80;;;0.80;;
61413;SDS011;47279;52.426;10.488;2022-08-01T09:21:32;1.02;;;1.02;;
61413;SDS011;47279;52.426;10.488;2022-08-01T09:23:58;0.85;;;0.85;;
61413;SDS011;47279;52.426;10.488;2022-08-01T09:26:32;0.80;;;0.80;;
61413;SDS011;47279;52.426;10.488;2022-08-01T09:28:58;0.88;;;0.88;;
61413;SDS011;47279;52.426;10.488;2022-08-01T09:31:25;1.08;;;0.95;;
61413;SDS011;47279;52.426;10.488;2022-08-01T09:36:18;0.90;;;0.90;;
61413;SDS011;47279;52.426;10.488;2022-08-01T09:38:45;0.85;;;0.85;;
61413;SDS011;47279;52.426;10.488;2022-08-01T09:41:11;0.93;;;0.90;;
61413;SDS011;47279;52.426;10.488;2022-08-01T09:43:37;0.90;;;0.70;;
61413;SDS011;47279;52.426;10.488;2022-08-01T09:46:10;0.90;;;0.90;;
61413;SDS011;47279;52.426;10.488;2022-08-01T09:48:36;0.80;;;0.80;;
61413;SDS011;47279;52.426;10.488;2022-08-01T09:51:04;0.93;;;0.80;;
61413;SDS011;47279;52.426;10.488;2022-08-01T09:53:44;0.90;;;0.90;;
61413;SDS011;47279;52.426;10.488;2022-08-01T09:56:10;0.77;;;0.77;;
61413;SDS011;47279;52.426;10.488;2022-08-01T09:58:48;0.68;;;0.68;;
61413;SDS011;47279;52.426;10.488;2022-08-01T10:01:14;0.90;;;0.90;;
61413;SDS011;47279;52.426;10.488;2022-08-01T10:03:40;0.73;;;0.73;;
61413;SDS011;47279;52.426;10.488;2022-08-01T10:06:19;0.80;;;0.80;;
61413;SDS011;47279;52.426;10.488;2022-08-01T10:08:46;0.90;;;0.90;;
61413;SDS011;47279;52.426;10.488;2022-08-01T10:11:12;0.80;;;0.80;;
61413;SDS011;47279;52.426;10.488;2022-08-01T10:13:38;0.85;;;0.85;;
61413;SDS011;47279;52.426;10.488;2022-08-01T10:16:05;0.90;;;0.90;;
61413;SDS011;47279;52.426;10.488;2022-08-01T10:18:33;0.90;;;0.90;;
61413;SDS011;47279;52.426;10.488;2022-08-01T10:21:00;1.08;;;1.00;;
61413;SDS011;47279;52.426;10.488;2022-08-01T10:23:26;1.00;;;0.95;;
61413;SDS011;47279;52.426;10.488;2022-08-01T10:25:53;0.80;;;0.80;;
61413;SDS011;47279;52.426;10.488;2022-08-01T10:28:19;0.80;;;0.80;;
61413;SDS011;47279;52.426;10.488;2022-08-01T10:30:45;0.70;;;0.70;;
61413;SDS011;47279;52.426;10.488;2022-08-01T10:33:13;0.80;;;0.80;;
61413;SDS011;47279;52.426;10.488;2022-08-01T10:35:39;0.77;;;0.77;;
61413;SDS011;47279;52.426;10.488;2022-08-01T10:38:06;0.70;;;0.70;;
61413;SDS011;47279;52.426;10.488;2022-08-01T10:40:32;0.70;;;0.70;;
61413;SDS011;47279;52.426;10.488;2022-08-01T10:42:58;0.70;;;0.70;;
61413;SDS011;47279;52.426;10.488;2022-08-01T10:45:24;0.85;;;0.85;;
61413;SDS011;47279;52.426;10.488;2022-08-01T10:48:14;0.80;;;0.80;;
61413;SDS011;47279;52.426;10.488;2022-08-01T10:50:41;0.75;;;0.65;;
61413;SDS011;47279;52.426;10.488;2022-08-01T10:53:23;0.70;;;0.70;;
61413;SDS011;47279;52.426;10.488;2022-08-01T11:00:47;1.13;;;0.85;;
61413;SDS011;47279;52.426;10.488;2022-08-01T11:03:13;0.80;;;0.80;;
61413;SDS011;47279;52.426;10.488;2022-08-01T11:05:39;0.70;;;0.70;;
61413;SDS011;47279;52.426;10.488;2022-08-01T11:08:10;0.82;;;0.82;;
61413;SDS011;47279;52.426;10.488;2022-08-01T11:10:40;0.90;;;0.90;;
61413;SDS011;47279;52.426;10.488;2022-08-01T11:13:09;0.80;;;0.80;;
61413;SDS011;47279;52.426;10.488;2022-08-01T11:15:36;0.73;;;0.73;;
61413;SDS011;47279;52.426;10.488;2022-08-01T11:18:03;0.60;;;0.60;;
61413;SDS011;47279;52.426;10.488;2022-08-01T11:20:33;0.90;;;0.90;;
61413;SDS011;47279;52.426;10.488;2022-08-01T11:25:26;0.80;;;0.68;;
61413;SDS011;47279;52.426;10.488;2022-08-01T11:49:24;0.80;;;0.80;;
61413;SDS011;47279;52.426;10.488;2022-08-01T11:54:29;0.73;;;0.73;;
61413;SDS011;47279;52.426;10.488;2022-08-01T11:59:21;0.70;;;0.70;;
61413;SDS011;47279;52.426;10.488;2022-08-01T12:01:48;0.65;;;0.65;;
61413;SDS011;47279;52.426;10.488;2022-08-01T12:04:14;0.77;;;0.77;;
61413;SDS011;47279;52.426;10.488;2022-08-01T12:06:40;0.80;;;0.80;;
61413;SDS011;47279;52.426;10.488;2022-08-01T12:09:16;0.70;;;0.70;;
61413;SDS011;47279;52.426;10.488;2022-08-01T12:11:42;0.65;;;0.65;;
61413;SDS011;47279;52.426;10.488;2022-08-01T12:14:08;0.80;;;0.80;;
61413;SDS011;47279;52.426;10.488;2022-08-01T12:16:34;0.65;;;0.60;;
61413;SDS011;47279;52.426;10.488;2022-08-01T12:19:00;0.68;;;0.68;;
61413;SDS011;47279;52.426;10.488;2022-08-01T12:21:26;1.13;;;0.90;;
61413;SDS011;47279;52.426;10.488;2022-08-01T12:24:01;0.80;;;0.80;;
61413;SDS011;47279;52.426;10.488;2022-08-01T12:26:40;0.95;;;0.80;;
61413;SDS011;47279;52.426;10.488;2022-08-01T12:29:07;0.75;;;0.75;;
61413;SDS011;47279;52.426;10.488;2022-08-01T12:31:33;0.85;;;0.85;;
61413;SDS011;47279;52.426;10.488;2022-08-01T12:36:44;0.60;;;0.60;;
61413;SDS011;47279;52.426;10.488;2022-08-01T12:39:10;1.13;;;1.10;;
61413;SDS011;47279;52.426;10.488;2022-08-01T12:41:37;0.90;;;0.90;;
61413;SDS011;47279;52.426;10.488;2022-08-01T12:44:03;0.90;;;0.90;;
61413;SDS011;47279;52.426;10.488;2022-08-01T12:46:37;0.98;;;0.95;;
61413;SDS011;47279;52.426;10.488;2022-08-01T12:49:03;0.80;;;0.80;;
61413;SDS011;47279;52.426;10.488;2022-08-01T12:51:29;0.77;;;0.73;;
61413;SDS011;47279;52.426;10.488;2022-08-01T12:53:58;0.80;;;0.80;;
61413;SDS011;47279;52.426;10.488;2022-08-01T12:56:30;0.82;;;0.82;;
61413;SDS011;47279;52.426;10.488;2022-08-01T12:58:57;0.70;;;0.70;;
61413;SDS011;47279;52.426;10.488;2022-08-01T13:01:27;0.73;;;0.73;;
61413;SDS011;47279;52.426;10.488;2022-08-01T13:04:02;1.30;;;0.82;;
61413;SDS011;47279;52.426;10.488;2022-08-01T13:06:29;0.70;;;0.70;;
61413;SDS011;47279;52.426;10.488;2022-08-01T13:09:04;0.85;;;0.68;;
61413;SDS011;47279;52.426;10.488;2022-08-01T13:11:30;0.80;;;0.80;;
61413;SDS011;47279;52.426;10.488;2022-08-01T13:13:56;0.70;;;0.70;;
61413;SDS011;47279;52.426;10.488;2022-08-01T13:16:23;0.80;;;0.80;;
61413;SDS011;47279;52.426;10.488;2022-08-01T13:18:53;0.60;;;0.60;;
61413;SDS011;47279;52.426;10.488;2022-08-01T13:21:20;0.77;;;0.77;;
61413;SDS011;47279;52.426;10.488;2022-08-01T13:24:05;0.75;;;0.75;;
61413;SDS011;47279;52.426;10.488;2022-08-01T13:26:47;0.70;;;0.70;;
61413;SDS011;47279;52.426;10.488;2022-08-01T13:29:13;0.73;;;0.73;;
61413;SDS011;47279;52.426;10.488;2022-08-01T13:31:40;0.80;;;0.73;;
61413;SDS011;47279;52.426;10.488;2022-08-01T13:34:06;0.80;;;0.80;;
61413;SDS011;47279;52.426;10.488;2022-08-01T13:36:32;0.60;;;0.60;;
61413;SDS011;47279;52.426;10.488;2022-08-01T13:38:58;0.68;;;0.68;;
61413;SDS011;47279;52.426;10.488;2022-08-01T13:41:43;0.80;;;0.80;;
61413;SDS011;47279;52.426;10.488;2022-08-01T13:44:09;0.63;;;0.63;;
61413;SDS011;47279;52.426;10.488;2022-08-01T13:46:39;0.73;;;0.73;;
61413;SDS011;47279;52.426;10.488;2022-08-01T13:49:05;0.80;;;0.80;;
61413;SDS011;47279;52.426;10.488;2022-08-01T13:51:31;0.70;;;0.70;;
61413;SDS011;47279;52.426;10.488;2022-08-01T13:53:57;0.60;;;0.60;;
61413;SDS011;47279;52.426;10.488;2022-08-01T13:56:24;0.60;;;0.60;;
61413;SDS011;47279;52.426;10.488;2022-08-01T13:58:50;0.63;;;0.63;;
61413;SDS011;47279;52.426;10.488;2022-08-01T14:01:16;0.70;;;0.70;;
61413;SDS011;47279;52.426;10.488;2022-08-01T14:03:42;0.75;;;0.75;;
61413;SDS011;47279;52.426;10.488;2022-08-01T14:06:08;0.80;;;0.80;;
61413;SDS011;47279;52.426;10.488;2022-08-01T14:08:33;0.50;;;0.50;;
61413;SDS011;47279;52.426;10.488;2022-08-01T14:10:59;0.68;;;0.68;;
61413;SDS011;47279;52.426;10.488;2022-08-01T14:13:25;0.60;;;0.60;;
61413;SDS011;47279;52.426;10.488;2022-08-01T14:15:51;0.90;;;0.90;;
61413;SDS011;47279;52.426;10.488;2022-08-01T14:18:17;0.90;;;0.80;;
61413;SDS011;47279;52.426;10.488;2022-08-01T14:20:44;0.70;;;0.70;;
61413;SDS011;47279;52.426;10.488;2022-08-01T14:23:10;0.60;;;0.60;;
61413;SDS011;47279;52.426;10.488;2022-08-01T14:25:36;0.70;;;0.70;;
61413;SDS011;47279;52.426;10.488;2022-08-01T14:28:02;0.65;;;0.65;;
61413;SDS011;47279;52.426;10.488;2022-08-01T14:30:28;0.70;;;0.63;;
61413;SDS011;47279;52.426;10.488;2022-08-01T14:32:54;0.80;;;0.80;;
61413;SDS011;47279;52.426;10.488;2022-08-01T14:35:20;0.65;;;0.63;;
61413;SDS011;47279;52.426;10.488;2022-08-01T14:37:47;0.57;;;0.57;;
61413;SDS011;47279;52.426;10.488;2022-08-01T14:40:12;0.70;;;0.70;;
61413;SDS011;47279;52.426;10.488;2022-08-01T14:42:39;0.77;;;0.77;;
61413;SDS011;47279;52.426;10.488;2022-08-01T14:45:05;0.80;;;0.80;;
61413;SDS011;47279;52.426;10.488;2022-08-01T14:47:36;0.82;;;0.82;;
61413;SDS011;47279;52.426;10.488;2022-08-01T14:50:03;0.80;;;0.80;;
61413;SDS011;47279;52.426;10.488;2022-08-01T14:52:30;0.60;;;0.60;;
61413;SDS011;47279;52.426;10.488;2022-08-01T14:54:57;0.68;;;0.68;;
61413;SDS011;47279;52.426;10.488;2022-08-01T14:57:22;0.70;;;0.70;;
61413;SDS011;47279;52.426;10.488;2022-08-01T14:59:48;0.77;;;0.68;;
61413;SDS011;47279;52.426;10.488;2022-08-01T15:02:14;0.60;;;0.60;;
61413;SDS011;47279;52.426;10.488;2022-08-01T15:04:42;0.70;;;0.70;;
61413;SDS011;47279;52.426;10.488;2022-08-01T15:07:09;0.80;;;0.80;;
61413;SDS011;47279;52.426;10.488;2022-08-01T15:09:35;0.70;;;0.70;;
61413;SDS011;47279;52.426;10.488;2022-08-01T15:12:01;0.68;;;0.68;;
61413;SDS011;47279;52.426;10.488;2022-08-01T15:14:27;0.70;;;0.70;;
61413;SDS011;47279;52.426;10.488;2022-08-01T15:17:12;0.70;;;0.70;;
61413;SDS011;47279;52.426;10.488;2022-08-01T15:19:38;0.80;;;0.70;;
61413;SDS011;47279;52.426;10.488;2022-08-01T15:22:04;0.70;;;0.70;;